Terminal Aerodrome Forecast
Issued by NWS

Home | Current Version | Previous Version | Text Only | Print | Product List | Glossary On
Versions: 1 2 3 4 5 6 7 8 9 10 11 12 13 14 15 16 17 18 19 20 21 22 23 24 25 26 27 28
000
FTUS41 KOKX 300200 AAA
TAFGON
TAF AMD
KGON 300241Z 3003/3024 15007KT P6SM FEW050 SCT250
     FM300800 VRB03KT P6SM FEW020 BKN250
      TEMPO 3008/3012 5SM BR
     FM301400 18007KT P6SM SCT030 BKN150
     FM301900 19010KT P6SM SCT040 BKN120=

USA.gov is the U.S. government's official web portal to all federal, state and local government web resources and services.